createdAt,value
2019-02-05T00:01:35.455Z,87.07
2019-02-05T00:04:05.499Z,86.24
2019-02-05T00:06:34.604Z,87.41
2019-02-05T00:09:04.841Z,87.88
2019-02-05T00:11:34.115Z,87.73
2019-02-05T00:14:03.203Z,86.83
2019-02-05T00:16:32.295Z,87.23
2019-02-05T00:19:01.564Z,87.22
2019-02-05T00:21:30.658Z,87.05
2019-02-05T00:23:59.828Z,88.69
2019-02-05T00:26:31.183Z,88.73
2019-02-05T00:29:00.265Z,88.42
2019-02-05T00:31:29.451Z,87.80
2019-02-05T00:33:58.517Z,88.29
2019-02-05T00:36:27.685Z,88.21
2019-02-05T00:38:56.747Z,87.86
2019-02-05T00:41:25.935Z,87.68
2019-02-05T00:43:55.015Z,88.03
2019-02-05T00:46:24.148Z,86.87
2019-02-05T00:48:55.535Z,87.30
2019-02-05T00:51:25.929Z,87.55
2019-02-05T00:53:55.160Z,87.60
2019-02-05T00:56:24.823Z,88.32
2019-02-05T00:58:53.980Z,88.09
2019-02-05T01:01:25.253Z,88.54
2019-02-05T01:03:54.295Z,88.75
2019-02-05T01:06:25.816Z,88.30
2019-02-05T01:08:57.207Z,89.35
2019-02-05T01:11:26.373Z,88.80
2019-02-05T01:13:55.600Z,88.53
2019-02-05T01:16:25.957Z,88.47
2019-02-05T01:18:55.026Z,88.96
2019-02-05T01:21:26.520Z,88.95
2019-02-05T01:23:55.740Z,88.91
2019-02-05T01:26:29.401Z,88.73
2019-02-05T01:28:55.771Z,90.74
2019-02-05T01:31:24.830Z,90.93
2019-02-05T01:33:53.952Z,89.56
2019-02-05T01:36:23.067Z,88.98
2019-02-05T01:38:54.188Z,91.69
2019-02-05T01:41:23.298Z,91.80
2019-02-05T01:43:52.804Z,90.35
2019-02-05T01:46:21.879Z,91.31
2019-02-05T01:48:50.979Z,91.33
2019-02-05T01:51:22.270Z,90.89
2019-02-05T01:53:51.384Z,89.78
2019-02-05T01:56:20.466Z,90.59
2019-02-05T01:58:49.952Z,91.94
2019-02-05T02:01:19.024Z,91.94
2019-02-05T02:03:48.080Z,91.87
2019-02-05T02:06:17.199Z,91.54
2019-02-05T02:08:46.334Z,91.98
2019-02-05T02:11:17.243Z,91.71
2019-02-05T02:13:46.588Z,91.89
2019-02-05T02:16:15.727Z,91.54
2019-02-05T02:18:44.892Z,91.88
2019-02-05T02:21:13.953Z,92.40
2019-02-05T02:23:45.133Z,91.96
2019-02-05T02:26:14.221Z,91.65
2019-02-05T02:28:43.422Z,91.81
2019-02-05T02:31:12.468Z,92.59
2019-02-05T02:33:41.634Z,92.73
2019-02-05T02:36:11.866Z,91.92
2019-02-05T02:38:40.953Z,92.56
2019-02-05T02:41:10.062Z,93.01
2019-02-05T02:43:39.451Z,93.89
2019-02-05T02:46:08.570Z,94.04
2019-02-05T02:48:38.183Z,94.70
2019-02-05T02:51:07.294Z,94.05
2019-02-05T02:53:38.347Z,94.75
2019-02-05T02:56:07.462Z,94.53
2019-02-05T02:58:36.557Z,93.64
2019-02-05T03:01:05.682Z,94.34
2019-02-05T03:03:37.890Z,92.43
2019-02-05T03:06:06.950Z,91.63
2019-02-05T03:08:36.064Z,91.94
2019-02-05T03:11:05.344Z,93.60
2019-02-05T03:13:35.141Z,94.06
2019-02-05T03:16:04.809Z,93.66
2019-02-05T03:18:33.879Z,93.55
2019-02-05T03:21:03.009Z,93.54
2019-02-05T03:23:33.297Z,92.11
2019-02-05T03:26:02.351Z,91.66
2019-02-05T03:28:31.416Z,91.15
2019-02-05T03:31:03.498Z,90.97
2019-02-05T03:33:33.903Z,90.30
2019-02-05T03:36:02.988Z,90.29
2019-02-05T03:38:32.065Z,89.62
2019-02-05T03:41:04.595Z,88.67
2019-02-05T03:43:35.805Z,88.66
2019-02-05T03:46:24.753Z,89.07
2019-02-05T03:48:53.804Z,89.01
2019-02-05T03:52:07.284Z,89.40
2019-02-05T03:55:16.390Z,90.04
2019-02-05T03:58:22.353Z,90.01
2019-02-05T04:01:20.402Z,90.32
2019-02-05T04:04:14.504Z,90.66
2019-02-05T04:07:19.468Z,90.78
2019-02-05T04:10:29.001Z,91.47
2019-02-05T04:13:21.855Z,90.81
2019-02-05T04:16:37.231Z,91.48
2019-02-05T04:19:35.113Z,92.60
2019-02-05T04:22:37.735Z,92.18
2019-02-05T04:25:31.987Z,92.19
2019-02-05T04:28:30.509Z,90.29
2019-02-05T04:31:53.863Z,90.63
2019-02-05T04:34:53.365Z,90.52
2019-02-05T04:37:52.970Z,90.15
2019-02-05T04:40:36.731Z,90.13
2019-02-05T04:43:50.052Z,90.32
2019-02-05T04:46:36.861Z,89.79
2019-02-05T04:49:54.951Z,89.43
2019-02-05T04:53:14.670Z,89.73
2019-02-05T04:56:10.164Z,90.11
2019-02-05T04:59:14.773Z,90.30
2019-02-05T05:02:26.030Z,90.72
2019-02-05T05:05:26.456Z,89.80
2019-02-05T05:08:17.398Z,89.05
2019-02-05T05:10:46.485Z,89.63
2019-02-05T05:13:17.608Z,89.20
2019-02-05T05:15:46.713Z,89.72
2019-02-05T05:18:15.864Z,90.09
2019-02-05T05:20:44.933Z,89.82
2019-02-05T05:23:16.956Z,89.86
2019-02-05T05:25:46.026Z,90.44
2019-02-05T05:28:15.147Z,89.59
2019-02-05T05:30:44.358Z,89.73
2019-02-05T05:33:13.740Z,89.66
2019-02-05T05:35:44.584Z,90.44
2019-02-05T05:38:13.846Z,91.37
2019-02-05T05:40:43.005Z,90.16
2019-02-05T05:43:12.153Z,90.06
2019-02-05T05:45:43.785Z,89.73
2019-02-05T05:48:13.284Z,89.47
2019-02-05T05:50:42.364Z,89.24
2019-02-05T05:53:11.477Z,90.90
2019-02-05T05:55:40.653Z,90.69
2019-02-05T05:58:21.953Z,89.91
2019-02-05T06:00:40.580Z,89.75
2019-02-05T06:03:09.663Z,90.04
2019-02-05T06:05:38.777Z,90.07
2019-02-05T06:08:07.875Z,90.18
2019-02-05T06:10:36.979Z,89.61
2019-02-05T06:13:06.191Z,90.81
2019-02-05T06:15:35.970Z,90.78
2019-02-05T06:18:05.286Z,91.15
2019-02-05T06:20:34.710Z,90.44
2019-02-05T06:23:03.820Z,90.49
2019-02-05T06:25:33.199Z,90.24
2019-02-05T06:28:05.154Z,89.85
2019-02-05T06:30:34.319Z,89.83
2019-02-05T06:33:03.580Z,89.12
2019-02-05T06:35:33.063Z,88.98
2019-02-05T06:38:03.331Z,88.66
2019-02-05T06:40:33.019Z,88.46
2019-02-05T06:43:02.109Z,88.26
2019-02-05T06:45:31.217Z,88.30
2019-02-05T06:48:00.347Z,87.59
2019-02-05T06:50:29.488Z,87.77
2019-02-05T06:52:58.626Z,88.15
2019-02-05T06:55:32.459Z,88.51
2019-02-05T06:58:01.873Z,87.52
2019-02-05T07:00:33.404Z,87.80
2019-02-05T07:03:02.500Z,88.24
2019-02-05T07:05:32.862Z,88.73
2019-02-05T07:08:03.004Z,88.85
2019-02-05T07:10:32.187Z,89.22
2019-02-05T07:13:01.305Z,89.21
2019-02-05T07:15:30.438Z,89.89
2019-02-05T07:17:59.558Z,89.18
2019-02-05T07:20:31.010Z,89.27
2019-02-05T07:23:01.247Z,88.85
2019-02-05T07:25:30.386Z,88.76
2019-02-05T07:27:59.463Z,87.95
2019-02-05T07:30:30.387Z,88.39
2019-02-05T07:32:59.608Z,90.00
2019-02-05T07:35:28.720Z,90.39
2019-02-05T07:37:58.211Z,90.75
2019-02-05T07:40:27.327Z,91.69
2019-02-05T07:42:56.513Z,91.92
2019-02-05T07:45:25.700Z,92.02
2019-02-05T07:47:54.844Z,90.28
2019-02-05T07:50:25.312Z,90.64
2019-02-05T07:52:56.487Z,89.99
2019-02-05T07:55:27.499Z,90.29
2019-02-05T07:57:56.649Z,90.04
2019-02-05T08:00:27.343Z,88.20
2019-02-05T08:02:56.443Z,89.83
2019-02-05T08:05:28.356Z,89.43
2019-02-05T08:07:57.587Z,87.53
2019-02-05T08:10:26.664Z,88.38
2019-02-05T08:12:55.972Z,89.52
2019-02-05T08:15:27.176Z,88.86
2019-02-05T08:17:56.342Z,88.02
2019-02-05T08:20:25.504Z,88.49
2019-02-05T08:22:54.696Z,86.41
2019-02-05T08:25:23.769Z,84.89
2019-02-05T08:27:53.129Z,84.39
2019-02-05T08:30:28.234Z,84.43
2019-02-05T08:32:57.360Z,83.95
2019-02-05T08:35:28.016Z,82.88
2019-02-05T08:38:01.346Z,81.65
2019-02-05T08:40:30.474Z,82.65
2019-02-05T08:42:59.623Z,80.91
2019-02-05T08:45:30.463Z,80.88
2019-02-05T08:47:59.640Z,84.55
2019-02-05T08:50:29.243Z,82.67
2019-02-05T08:52:58.417Z,81.06
2019-02-05T08:55:30.652Z,81.60
2019-02-05T08:58:00.641Z,79.44
2019-02-05T09:00:31.971Z,79.42
2019-02-05T09:03:01.150Z,79.85
2019-02-05T09:05:31.457Z,78.21
2019-02-05T09:08:00.558Z,77.55
2019-02-05T09:10:31.765Z,78.61
2019-02-05T09:13:01.912Z,77.05
2019-02-05T09:15:33.071Z,76.84
2019-02-05T09:18:02.229Z,76.33
2019-02-05T09:20:31.420Z,76.81
2019-02-05T09:23:01.651Z,76.09
2019-02-05T09:25:30.775Z,76.56
2019-02-05T09:28:01.632Z,76.42
2019-02-05T09:30:32.497Z,77.49
2019-02-05T09:33:03.414Z,76.85
2019-02-05T09:35:35.040Z,75.33
2019-02-05T09:38:04.113Z,75.81
2019-02-05T09:40:34.220Z,76.81
2019-02-05T09:43:03.313Z,74.60
2019-02-05T09:45:32.565Z,73.70
2019-02-05T09:48:03.080Z,72.90
2019-02-05T09:50:43.763Z,73.05
2019-02-05T09:53:03.102Z,72.53
2019-02-05T09:55:32.369Z,73.06
2019-02-05T09:58:02.596Z,73.96
2019-02-05T10:00:33.964Z,72.29
2019-02-05T10:03:03.050Z,70.63
2019-02-05T10:05:32.721Z,71.01
2019-02-05T10:08:01.916Z,69.99
2019-02-05T10:10:31.129Z,69.63
2019-02-05T10:13:00.291Z,68.16
2019-02-05T10:15:35.453Z,64.79
2019-02-05T10:18:06.626Z,66.49
2019-02-05T10:20:35.709Z,65.13
2019-02-05T10:23:06.445Z,66.12
2019-02-05T10:25:39.409Z,63.59
2019-02-05T10:28:08.507Z,65.28
2019-02-05T10:30:40.007Z,64.73
2019-02-05T10:33:09.512Z,64.24
2019-02-05T10:35:38.624Z,67.88
2019-02-05T10:38:07.898Z,67.32
2019-02-05T10:40:37.128Z,63.90
2019-02-05T10:43:07.379Z,64.87
2019-02-05T10:45:37.017Z,65.28
2019-02-05T10:48:07.582Z,62.60
2019-02-05T10:50:36.613Z,60.92
2019-02-05T10:53:05.838Z,64.53
2019-02-05T10:55:35.026Z,61.55
2019-02-05T10:58:04.332Z,62.11
2019-02-05T11:00:34.509Z,61.03
2019-02-05T11:03:04.529Z,60.10
2019-02-05T11:05:33.646Z,61.42
2019-02-05T11:08:02.804Z,60.13
2019-02-05T11:10:31.866Z,58.34
2019-02-05T11:13:00.983Z,61.07
2019-02-05T11:15:31.796Z,58.46
2019-02-05T11:18:01.312Z,60.25
2019-02-05T11:20:30.784Z,61.28
2019-02-05T11:23:00.111Z,58.79
2019-02-05T11:25:31.025Z,60.74
2019-02-05T11:28:02.396Z,58.76
2019-02-05T11:30:39.547Z,58.83
2019-02-05T11:33:08.640Z,58.39
2019-02-05T11:35:38.991Z,55.91
2019-02-05T11:38:08.506Z,57.31
2019-02-05T11:40:40.135Z,55.12
2019-02-05T11:43:10.213Z,55.14
2019-02-05T11:45:42.492Z,57.08
2019-02-05T11:48:14.393Z,56.64
2019-02-05T11:50:43.503Z,56.38
2019-02-05T11:53:12.628Z,56.43
2019-02-05T11:55:41.716Z,56.39
2019-02-05T11:58:10.792Z,57.36
2019-02-05T12:00:58.840Z,57.52
2019-02-05T12:03:28.006Z,59.00
2019-02-05T12:05:57.095Z,59.20
2019-02-05T12:08:28.550Z,60.09
2019-02-05T12:10:57.698Z,59.32
2019-02-05T12:13:26.795Z,58.72
2019-02-05T12:15:55.861Z,58.55
2019-02-05T12:18:27.627Z,55.66
2019-02-05T12:21:00.874Z,55.34
2019-02-05T12:23:29.999Z,55.60
2019-02-05T12:26:02.576Z,55.37
2019-02-05T12:28:31.792Z,56.51
2019-02-05T12:31:00.913Z,58.35
2019-02-05T12:33:30.250Z,58.46
2019-02-05T12:36:00.379Z,59.91
2019-02-05T12:38:29.738Z,61.62
2019-02-05T12:40:58.776Z,60.02
2019-02-05T12:43:27.942Z,60.90
2019-02-05T12:45:57.021Z,59.71
2019-02-05T12:48:26.558Z,60.93
2019-02-05T12:50:55.623Z,61.66
2019-02-05T12:53:26.257Z,60.17
2019-02-05T12:55:55.312Z,62.03
2019-02-05T12:58:24.418Z,61.04
2019-02-05T13:00:59.557Z,61.74
2019-02-05T13:03:25.171Z,61.82
2019-02-05T13:05:54.228Z,60.74
2019-02-05T13:08:23.288Z,61.07
2019-02-05T13:10:53.368Z,61.45
2019-02-05T13:13:22.412Z,61.44
2019-02-05T13:15:51.667Z,60.16
2019-02-05T13:18:21.225Z,59.02
2019-02-05T13:20:50.372Z,60.03
2019-02-05T13:23:19.442Z,60.27
2019-02-05T13:25:48.552Z,59.98
2019-02-05T13:28:17.615Z,58.69
2019-02-05T13:30:46.691Z,57.31
2019-02-05T13:33:16.903Z,56.52
2019-02-05T13:35:46.037Z,56.81
2019-02-05T13:38:16.658Z,55.37
2019-02-05T13:40:45.819Z,55.25
2019-02-05T13:43:14.895Z,56.36
2019-02-05T13:45:43.996Z,55.07
2019-02-05T13:48:13.397Z,55.05
2019-02-05T13:50:42.604Z,56.66
2019-02-05T13:53:11.679Z,56.43
2019-02-05T13:55:42.707Z,57.01
2019-02-05T13:58:12.691Z,57.84
2019-02-05T14:00:47.389Z,57.19
2019-02-05T14:03:16.630Z,58.22
2019-02-05T14:05:47.138Z,57.73
2019-02-05T14:08:16.224Z,57.83
2019-02-05T14:10:45.700Z,57.32
2019-02-05T14:13:14.979Z,60.28
2019-02-05T14:15:45.582Z,59.92
2019-02-05T14:18:14.796Z,59.63
2019-02-05T14:20:44.036Z,61.06
2019-02-05T14:23:13.146Z,61.81
2019-02-05T14:25:44.286Z,60.38
2019-02-05T14:28:13.362Z,60.26
2019-02-05T14:30:50.711Z,59.64
2019-02-05T14:33:19.838Z,59.75
2019-02-05T14:35:48.946Z,60.16
2019-02-05T14:38:18.053Z,59.33
2019-02-05T14:40:47.154Z,58.88
2019-02-05T14:43:16.215Z,59.51
2019-02-05T14:45:45.873Z,59.44
2019-02-05T14:48:16.749Z,59.32
2019-02-05T14:50:46.730Z,59.09
2019-02-05T14:53:15.814Z,58.50
2019-02-05T14:55:44.883Z,60.06
2019-02-05T14:58:15.259Z,59.18
2019-02-05T15:00:46.653Z,58.63
2019-02-05T15:03:16.121Z,57.62
2019-02-05T15:05:49.351Z,59.01
2019-02-05T15:08:19.546Z,58.33
2019-02-05T15:10:49.120Z,60.10
2019-02-05T15:13:18.819Z,61.77
2019-02-05T15:15:48.028Z,62.11
2019-02-05T15:18:19.326Z,62.50
2019-02-05T15:20:49.628Z,61.44
2019-02-05T15:23:18.698Z,61.52
2019-02-05T15:25:47.842Z,62.13
2019-02-05T15:28:16.971Z,62.55
2019-02-05T15:30:46.091Z,63.48
2019-02-05T15:33:41.992Z,62.08
2019-02-05T15:36:20.572Z,62.80
2019-02-05T15:38:49.701Z,62.18
2019-02-05T15:41:18.811Z,62.79
2019-02-05T15:43:47.907Z,62.80
2019-02-05T15:46:18.182Z,63.42
2019-02-05T15:48:47.513Z,63.36
2019-02-05T15:51:16.616Z,63.03
2019-02-05T15:53:49.037Z,63.36
2019-02-05T15:56:19.737Z,62.89
2019-02-05T15:58:48.810Z,62.71
2019-02-05T16:01:17.847Z,63.57
2019-02-05T16:03:49.745Z,63.61
2019-02-05T16:06:21.983Z,64.19
2019-02-05T16:08:51.053Z,64.42
2019-02-05T16:11:20.132Z,65.20
2019-02-05T16:13:50.413Z,66.34
2019-02-05T16:16:20.114Z,66.67
2019-02-05T16:18:49.331Z,66.51
2019-02-05T16:21:18.450Z,66.90
2019-02-05T16:23:47.565Z,67.12
2019-02-05T16:26:17.840Z,68.15
2019-02-05T16:28:46.924Z,68.70
2019-02-05T16:31:18.075Z,68.87
2019-02-05T16:33:47.113Z,70.12
2019-02-05T16:36:16.225Z,72.09
2019-02-05T16:38:46.457Z,67.88
2019-02-05T16:41:15.572Z,69.08
2019-02-05T16:43:49.933Z,69.29
2019-02-05T16:46:19.288Z,70.09
2019-02-05T16:48:48.410Z,70.25
2019-02-05T16:51:19.829Z,70.83
2019-02-05T16:53:48.911Z,71.52
2019-02-05T16:56:18.300Z,72.61
2019-02-05T16:58:47.461Z,72.68
2019-02-05T17:01:16.900Z,73.66
2019-02-05T17:03:46.058Z,74.07
2019-02-05T17:06:15.297Z,74.83
2019-02-05T17:08:48.476Z,74.79
2019-02-05T17:11:17.538Z,75.15
2019-02-05T17:13:46.675Z,75.77
2019-02-05T17:16:16.938Z,75.78
2019-02-05T17:18:46.098Z,76.82
2019-02-05T17:21:15.184Z,77.71
2019-02-05T17:23:44.293Z,77.94
2019-02-05T17:26:13.352Z,77.29
2019-02-05T17:28:42.578Z,78.35
2019-02-05T17:31:12.102Z,79.21
2019-02-05T17:33:41.283Z,79.03
2019-02-05T17:36:11.088Z,80.13
2019-02-05T17:38:42.503Z,80.90
2019-02-05T17:41:11.595Z,80.83
2019-02-05T17:43:40.676Z,80.95
2019-02-05T17:46:09.723Z,81.63
2019-02-05T17:48:38.770Z,81.68
2019-02-05T17:51:07.868Z,82.01
2019-02-05T17:53:36.937Z,81.77
2019-02-05T17:56:06.049Z,81.71
2019-02-05T17:58:35.152Z,81.35
2019-02-05T18:01:15.462Z,81.67
2019-02-05T18:03:45.012Z,81.87
2019-02-05T18:06:16.570Z,81.93
2019-02-05T18:08:45.853Z,82.54
2019-02-05T18:11:14.947Z,83.09
2019-02-05T18:13:46.579Z,83.00
2019-02-05T18:16:17.821Z,83.69
2019-02-05T18:18:53.389Z,84.91
2019-02-05T18:21:24.115Z,83.89
2019-02-05T18:23:53.134Z,84.34
2019-02-05T18:26:24.845Z,84.36
2019-02-05T18:28:53.909Z,84.75
2019-02-05T18:31:25.027Z,84.11
2019-02-05T18:33:54.044Z,86.14
2019-02-05T18:36:24.327Z,87.17
2019-02-05T18:38:53.650Z,86.35
2019-02-05T18:41:22.759Z,85.69
2019-02-05T18:43:51.871Z,85.78
2019-02-05T18:46:20.978Z,86.10
2019-02-05T18:48:50.084Z,86.09
2019-02-05T18:51:19.213Z,86.91
2019-02-05T18:53:48.272Z,86.35
2019-02-05T18:56:17.387Z,85.87
2019-02-05T18:58:46.534Z,85.60
2019-02-05T19:01:15.690Z,84.77
2019-02-05T19:03:44.869Z,84.90
2019-02-05T19:06:13.981Z,85.92
2019-02-05T19:08:43.057Z,85.93
2019-02-05T19:11:12.526Z,86.06
2019-02-05T19:13:41.655Z,87.15
2019-02-05T19:16:10.813Z,87.25
2019-02-05T19:18:39.958Z,86.88
2019-02-05T19:21:09.062Z,86.10
2019-02-05T19:23:38.210Z,85.61
2019-02-05T19:26:17.356Z,85.31
2019-02-05T19:28:48.709Z,85.25
2019-02-05T19:31:38.728Z,85.32
2019-02-05T19:34:08.213Z,85.72
2019-02-05T19:36:37.335Z,85.97
2019-02-05T19:39:08.092Z,86.07
2019-02-05T19:41:37.195Z,86.05
2019-02-05T19:44:06.347Z,85.62
2019-02-05T19:46:50.419Z,85.74
2019-02-05T19:49:43.730Z,85.57
2019-02-05T19:52:12.764Z,85.74
2019-02-05T19:54:41.842Z,85.61
2019-02-05T19:57:10.973Z,85.97
2019-02-05T19:59:41.334Z,86.04
2019-02-05T20:02:10.410Z,86.22
2019-02-05T20:04:39.589Z,87.27
2019-02-05T20:07:08.689Z,87.77
2019-02-05T20:09:37.760Z,88.44
2019-02-05T20:12:09.095Z,89.83
2019-02-05T20:14:40.041Z,91.05
2019-02-05T20:17:19.567Z,90.31
2019-02-05T20:19:49.985Z,89.19
2019-02-05T20:22:19.093Z,89.06
2019-02-05T20:24:48.226Z,89.60
2019-02-05T20:27:17.341Z,90.03
2019-02-05T20:29:46.799Z,89.19
2019-02-05T20:32:15.936Z,89.06
2019-02-05T20:34:45.098Z,88.92
2019-02-05T20:37:14.514Z,88.28
2019-02-05T20:39:43.682Z,87.57
2019-02-05T20:42:13.062Z,86.90
2019-02-05T20:44:42.214Z,87.28
2019-02-05T20:47:14.308Z,87.66
2019-02-05T20:49:46.426Z,87.96
2019-02-05T20:52:15.974Z,87.61
2019-02-05T20:54:45.878Z,87.35
2019-02-05T20:57:15.585Z,87.54
2019-02-05T20:59:45.294Z,87.40
2019-02-05T21:02:14.866Z,87.29
2019-02-05T21:04:48.601Z,86.70
2019-02-05T21:07:17.272Z,87.36
2019-02-05T21:09:48.859Z,87.21
2019-02-05T21:12:17.944Z,88.12
2019-02-05T21:14:50.276Z,88.21
2019-02-05T21:17:19.636Z,87.77
2019-02-05T21:19:48.770Z,87.47
2019-02-05T21:22:17.906Z,87.49
2019-02-05T21:24:47.036Z,89.28
2019-02-05T21:27:16.081Z,91.33
2019-02-05T21:29:45.217Z,90.07
2019-02-05T21:32:15.789Z,88.92
2019-02-05T21:34:44.913Z,89.85
2019-02-05T21:37:14.050Z,89.82
2019-02-05T21:39:43.153Z,90.00
2019-02-05T21:42:12.215Z,90.40
2019-02-05T21:44:42.514Z,90.59
2019-02-05T21:47:11.964Z,90.18
2019-02-05T21:49:41.094Z,89.09
2019-02-05T21:52:12.429Z,88.21
2019-02-05T21:54:42.902Z,88.56
2019-02-05T21:57:12.122Z,88.83
2019-02-05T21:59:41.285Z,88.58
2019-02-05T22:02:10.498Z,88.14
2019-02-05T22:04:39.661Z,88.61
2019-02-05T22:07:08.739Z,88.65
2019-02-05T22:09:37.932Z,88.46
2019-02-05T22:12:10.421Z,90.48
2019-02-05T22:14:41.131Z,90.50
2019-02-05T22:17:10.537Z,90.17
2019-02-05T22:19:41.278Z,89.78
2019-02-05T22:22:10.386Z,89.24
2019-02-05T22:24:39.460Z,88.38
2019-02-05T22:27:08.918Z,87.48
2019-02-05T22:29:38.143Z,88.24
2019-02-05T22:32:07.164Z,88.18
2019-02-05T22:34:39.250Z,87.68
2019-02-05T22:37:07.106Z,87.86
2019-02-05T22:39:38.181Z,87.68
2019-02-05T22:42:07.381Z,87.81
2019-02-05T22:44:38.101Z,88.29
2019-02-05T22:47:08.291Z,87.61
2019-02-05T22:49:38.843Z,88.39
2019-02-05T22:52:07.951Z,88.59
2019-02-05T22:54:37.012Z,88.00
2019-02-05T22:57:06.165Z,87.45
2019-02-05T22:59:37.413Z,87.49
2019-02-05T23:02:06.951Z,86.17
2019-02-05T23:05:23.012Z,87.56
2019-02-05T23:07:52.160Z,88.42
2019-02-05T23:10:49.132Z,88.54
2019-02-05T23:13:19.840Z,88.17
2019-02-05T23:15:50.434Z,87.73
2019-02-05T23:18:19.693Z,88.17
2019-02-05T23:20:48.744Z,88.20
2019-02-05T23:23:17.901Z,87.93
2019-02-05T23:25:46.970Z,87.87
2019-02-05T23:28:16.064Z,87.35
2019-02-05T23:30:45.217Z,87.32
2019-02-05T23:33:14.464Z,87.99
2019-02-05T23:35:43.557Z,87.76
2019-02-05T23:38:12.653Z,88.28
2019-02-05T23:40:41.738Z,88.44
2019-02-05T23:43:10.791Z,88.35
2019-02-05T23:45:39.935Z,88.30
2019-02-05T23:48:09.311Z,88.40
2019-02-05T23:50:40.730Z,88.25
2019-02-05T23:53:09.889Z,88.13
2019-02-05T23:55:39.010Z,88.57
2019-02-05T23:58:08.139Z,88.82
